createdAt,value
2022-10-04T00:00:38.409Z,89.53
2022-10-04T00:02:46.813Z,87.95
2022-10-04T00:04:52.813Z,87.32
2022-10-04T00:06:59.685Z,87.01
2022-10-04T00:09:26.346Z,87.96
2022-10-04T00:11:35.395Z,88.61
2022-10-04T00:13:38.347Z,89.19
2022-10-04T00:15:39.984Z,90.53
2022-10-04T00:17:41.565Z,91.35
2022-10-04T00:19:47.044Z,91.90
2022-10-04T00:22:12.558Z,92.39
2022-10-04T00:24:22.228Z,92.53
2022-10-04T00:26:23.624Z,93.33
2022-10-04T00:28:25.233Z,93.45
2022-10-04T00:30:36.897Z,93.71
2022-10-04T00:32:41.384Z,93.65
2022-10-04T00:34:49.588Z,93.81
2022-10-04T00:36:59.905Z,94.14
2022-10-04T00:39:06.984Z,94.16
2022-10-04T00:41:09.347Z,94.07
2022-10-04T00:43:23.177Z,94.31
2022-10-04T00:45:33.715Z,94.59
2022-10-04T00:47:57.980Z,94.86
2022-10-04T00:50:18.810Z,95.11
2022-10-04T00:52:25.809Z,95.61
2022-10-04T00:54:34.706Z,95.32
2022-10-04T00:56:43.602Z,94.80
2022-10-04T00:59:03.345Z,94.15
2022-10-04T01:01:05.157Z,93.91
2022-10-04T01:03:22.003Z,93.91
2022-10-04T01:05:29.540Z,94.14
2022-10-04T01:07:38.054Z,94.33
2022-10-04T01:09:50.608Z,94.21
2022-10-04T01:12:03.528Z,93.82
2022-10-04T01:14:27.745Z,93.17
2022-10-04T01:16:33.645Z,92.98
2022-10-04T01:18:36.706Z,93.74
2022-10-04T01:21:00.053Z,94.07
2022-10-04T01:23:03.432Z,94.54
2022-10-04T01:25:05.517Z,94.96
2022-10-04T01:27:34.074Z,94.82
2022-10-04T01:29:35.691Z,94.95
2022-10-04T01:31:41.085Z,95.03
2022-10-04T01:33:42.793Z,95.16
2022-10-04T01:35:44.824Z,94.79
2022-10-04T01:37:46.532Z,94.17
2022-10-04T01:39:48.077Z,94.43
2022-10-04T01:41:55.546Z,94.49
2022-10-04T01:44:03.572Z,94.86
2022-10-04T01:46:12.446Z,95.07
2022-10-04T01:48:22.362Z,94.49
2022-10-04T01:50:35.573Z,94.68
2022-10-04T01:52:43.887Z,94.70
2022-10-04T01:54:52.722Z,94.79
2022-10-04T01:56:58.366Z,94.92
2022-10-04T01:59:07.108Z,95.23
2022-10-04T02:01:30.702Z,95.60
2022-10-04T02:03:32.410Z,95.81
2022-10-04T02:05:38.505Z,96.00
2022-10-04T02:07:42.117Z,96.02
2022-10-04T02:09:47.800Z,96.01
2022-10-04T02:11:54.080Z,95.63
2022-10-04T02:13:56.004Z,95.82
2022-10-04T02:15:59.144Z,95.61
2022-10-04T02:18:02.024Z,95.89
2022-10-04T02:20:11.776Z,96.08
2022-10-04T02:22:13.631Z,95.91
2022-10-04T02:24:15.879Z,96.03
2022-10-04T02:26:17.347Z,95.77
2022-10-04T02:28:19.092Z,95.85
2022-10-04T02:30:20.686Z,96.19
2022-10-04T02:32:40.828Z,96.23
2022-10-04T02:34:42.475Z,96.15
2022-10-04T02:36:43.967Z,96.28
2022-10-04T02:38:55.875Z,96.15
2022-10-04T02:41:32.288Z,96.18
2022-10-04T02:43:51.889Z,96.12
2022-10-04T02:46:26.186Z,96.33
2022-10-04T02:48:33.939Z,96.27
2022-10-04T02:50:41.053Z,95.94
2022-10-04T02:52:46.356Z,96.28
2022-10-04T02:55:09.611Z,95.52
2022-10-04T02:57:19.242Z,95.57
2022-10-04T02:59:22.086Z,95.24
2022-10-04T03:01:40.242Z,95.89
2022-10-04T03:03:46.433Z,95.38
2022-10-04T03:05:59.938Z,94.89
2022-10-04T03:08:01.776Z,95.13
2022-10-04T03:10:08.903Z,94.89
2022-10-04T03:12:12.590Z,95.07
2022-10-04T03:14:18.870Z,94.98
2022-10-04T03:16:21.714Z,95.02
2022-10-04T03:18:24.334Z,95.09
2022-10-04T03:20:26.198Z,95.14
2022-10-04T03:22:27.710Z,95.51
2022-10-04T03:24:33.569Z,95.67
2022-10-04T03:26:54.289Z,96.12
2022-10-04T03:28:58.189Z,96.12
2022-10-04T03:30:59.927Z,96.20
2022-10-04T03:33:02.200Z,96.05
2022-10-04T03:35:07.884Z,96.29
2022-10-04T03:37:16.312Z,96.48
2022-10-04T03:39:27.600Z,96.71
2022-10-04T03:41:29.116Z,96.57
2022-10-04T03:43:34.186Z,97.18
2022-10-04T03:45:35.772Z,96.65
2022-10-04T03:47:40.719Z,96.92
2022-10-04T03:49:48.616Z,97.13
2022-10-04T03:51:52.717Z,97.02
2022-10-04T03:53:57.366Z,97.43
2022-10-04T03:56:04.002Z,97.91
2022-10-04T03:58:09.260Z,97.55
2022-10-04T04:00:16.986Z,97.55
2022-10-04T04:02:29.997Z,97.90
2022-10-04T04:04:43.009Z,97.79
2022-10-04T04:07:02.415Z,97.71
2022-10-04T04:09:06.558Z,98.02
2022-10-04T04:11:19.987Z,98.07
2022-10-04T04:13:33.363Z,98.62
2022-10-04T04:15:35.121Z,98.34
2022-10-04T04:17:41.579Z,98.74
2022-10-04T04:19:44.118Z,98.42
2022-10-04T04:21:46.573Z,98.58
2022-10-04T04:23:59.743Z,98.68
2022-10-04T04:26:19.976Z,98.49
2022-10-04T04:28:33.904Z,98.89
2022-10-04T04:30:38.855Z,98.83
2022-10-04T04:32:44.597Z,98.42
2022-10-04T04:34:52.856Z,98.55
2022-10-04T04:37:01.604Z,98.78
2022-10-04T04:39:27.978Z,98.51
2022-10-04T04:41:35.252Z,98.68
2022-10-04T04:43:36.803Z,98.62
2022-10-04T04:45:38.588Z,98.69
2022-10-04T04:47:44.733Z,98.78
2022-10-04T04:49:46.260Z,98.44
2022-10-04T04:51:51.819Z,98.16
2022-10-04T04:53:55.417Z,98.45
2022-10-04T04:56:03.830Z,98.47
2022-10-04T04:58:08.595Z,98.29
2022-10-04T05:00:18.213Z,98.71
2022-10-04T05:02:35.790Z,98.51
2022-10-04T05:04:37.338Z,98.11
2022-10-04T05:06:45.213Z,98.09
2022-10-04T05:08:50.338Z,97.92
2022-10-04T05:10:58.340Z,97.80
2022-10-04T05:13:01.981Z,98.33
2022-10-04T05:15:03.768Z,97.89
2022-10-04T05:17:06.199Z,97.61
2022-10-04T05:19:14.014Z,97.70
2022-10-04T05:21:23.848Z,97.42
2022-10-04T05:23:25.641Z,97.69
2022-10-04T05:25:33.501Z,97.68
2022-10-04T05:27:38.049Z,97.09
2022-10-04T05:29:47.451Z,97.03
2022-10-04T05:32:25.967Z,96.54
2022-10-04T05:34:29.047Z,96.80
2022-10-04T05:36:50.610Z,96.94
2022-10-04T05:39:06.084Z,96.49
2022-10-04T05:41:17.756Z,97.01
2022-10-04T05:43:35.434Z,96.87
2022-10-04T05:45:36.982Z,97.13
2022-10-04T05:47:42.401Z,98.03
2022-10-04T05:49:46.304Z,97.26
2022-10-04T05:51:49.102Z,97.68
2022-10-04T05:53:51.122Z,97.83
2022-10-04T05:55:55.280Z,98.13
2022-10-04T05:58:09.028Z,97.87
2022-10-04T06:00:20.861Z,97.56
2022-10-04T06:02:50.122Z,97.70
2022-10-04T06:05:08.299Z,97.88
2022-10-04T06:07:19.910Z,98.58
2022-10-04T06:09:30.084Z,98.21
2022-10-04T06:11:43.172Z,98.36
2022-10-04T06:13:55.113Z,98.16
2022-10-04T06:16:11.994Z,98.60
2022-10-04T06:18:28.999Z,99.00
2022-10-04T06:21:07.737Z,98.65
2022-10-04T06:23:19.218Z,98.54
2022-10-04T06:25:37.161Z,98.78
2022-10-04T06:27:45.563Z,98.77
2022-10-04T06:29:55.236Z,99.09
2022-10-04T06:32:35.672Z,98.77
2022-10-04T06:34:46.133Z,98.80
2022-10-04T06:37:22.793Z,98.57
2022-10-04T06:39:52.235Z,99.04
2022-10-04T06:42:26.335Z,99.03
2022-10-04T06:44:54.344Z,98.99
2022-10-04T06:47:23.844Z,99.39
2022-10-04T06:49:53.188Z,99.49
2022-10-04T06:52:03.728Z,99.37
2022-10-04T06:54:08.146Z,99.80
2022-10-04T06:56:12.694Z,99.35
2022-10-04T06:58:33.182Z,99.56
2022-10-04T07:00:51.724Z,99.94
2022-10-04T07:02:57.990Z,99.74
2022-10-04T07:05:09.435Z,99.70
2022-10-04T07:07:35.665Z,99.22
2022-10-04T07:09:40.824Z,99.77
2022-10-04T07:11:51.194Z,99.61
2022-10-04T07:14:33.007Z,99.43
2022-10-04T07:16:43.941Z,99.45
2022-10-04T07:18:54.323Z,99.33
2022-10-04T07:21:06.306Z,99.19
2022-10-04T07:23:15.813Z,98.99
2022-10-04T07:25:30.395Z,98.90
2022-10-04T07:28:15.018Z,98.68
2022-10-04T07:30:20.225Z,98.18
2022-10-04T07:32:28.884Z,97.56
2022-10-04T07:34:35.300Z,97.18
2022-10-04T07:36:53.939Z,96.07
2022-10-04T07:38:59.516Z,95.69
2022-10-04T07:41:23.166Z,95.11
2022-10-04T07:43:32.430Z,94.95
2022-10-04T07:45:39.824Z,94.58
2022-10-04T07:47:43.090Z,94.40
2022-10-04T07:49:44.569Z,94.08
2022-10-04T07:52:19.342Z,93.68
2022-10-04T07:54:44.794Z,93.64
2022-10-04T07:56:58.215Z,93.52
2022-10-04T07:59:17.979Z,93.13
2022-10-04T08:01:53.476Z,91.90
2022-10-04T08:04:41.786Z,90.99
2022-10-04T08:06:56.412Z,90.87
2022-10-04T08:09:32.630Z,90.19
2022-10-04T08:11:49.618Z,90.78
2022-10-04T08:13:59.104Z,90.64
2022-10-04T08:16:04.586Z,90.09
2022-10-04T08:18:06.103Z,89.87
2022-10-04T08:20:27.736Z,89.42
2022-10-04T08:22:52.261Z,89.74
2022-10-04T08:25:05.933Z,88.80
2022-10-04T08:27:34.584Z,88.87
2022-10-04T08:29:44.964Z,88.29
2022-10-04T08:32:14.199Z,88.38
2022-10-04T08:34:45.586Z,88.38
2022-10-04T08:37:17.760Z,87.36
2022-10-04T08:39:38.091Z,87.18
2022-10-04T08:42:04.759Z,87.27
2022-10-04T08:44:18.068Z,86.75
2022-10-04T08:46:53.700Z,86.67
2022-10-04T08:49:21.146Z,84.67
2022-10-04T08:51:37.581Z,84.41
2022-10-04T08:54:11.473Z,84.78
2022-10-04T08:56:27.320Z,84.16
2022-10-04T08:59:00.342Z,82.79
2022-10-04T09:01:25.534Z,82.60
2022-10-04T09:03:42.253Z,82.33
2022-10-04T09:05:56.795Z,81.47
2022-10-04T09:08:35.847Z,81.18
2022-10-04T09:11:21.944Z,80.13
2022-10-04T09:13:46.611Z,79.68
2022-10-04T09:15:52.960Z,79.89
2022-10-04T09:18:12.590Z,79.80
2022-10-04T09:20:39.672Z,78.96
2022-10-04T09:22:44.171Z,78.61
2022-10-04T09:25:14.146Z,78.19
2022-10-04T09:27:50.042Z,78.01
2022-10-04T09:30:11.406Z,77.62
2022-10-04T09:32:18.641Z,77.79
2022-10-04T09:34:37.323Z,77.67
2022-10-04T09:37:14.440Z,77.29
2022-10-04T09:39:34.689Z,76.25
2022-10-04T09:41:42.111Z,76.93
2022-10-04T09:44:20.896Z,76.41
2022-10-04T09:46:56.305Z,75.99
2022-10-04T09:49:00.476Z,74.64
2022-10-04T09:51:34.415Z,73.95
2022-10-04T09:54:03.650Z,73.96
2022-10-04T09:56:26.799Z,73.38
2022-10-04T09:58:53.283Z,73.03
2022-10-04T10:01:14.184Z,73.21
2022-10-04T10:03:36.748Z,72.55
2022-10-04T10:06:23.256Z,71.46
2022-10-04T10:08:36.323Z,72.05
2022-10-04T10:11:17.623Z,72.22
2022-10-04T10:13:45.500Z,72.20
2022-10-04T10:16:05.376Z,71.19
2022-10-04T10:18:22.184Z,69.28
2022-10-04T10:20:46.850Z,69.80
2022-10-04T10:23:25.242Z,68.42
2022-10-04T10:25:48.892Z,67.22
2022-10-04T10:28:18.230Z,67.92
2022-10-04T10:30:31.184Z,67.89
2022-10-04T10:32:58.946Z,67.32
2022-10-04T10:35:22.802Z,67.11
2022-10-04T10:37:24.960Z,66.32
2022-10-04T10:39:53.811Z,65.65
2022-10-04T10:42:21.507Z,64.60
2022-10-04T10:44:35.508Z,62.53
2022-10-04T10:47:03.208Z,61.92
2022-10-04T10:49:26.105Z,61.11
2022-10-04T10:52:06.224Z,59.05
2022-10-04T10:54:25.242Z,58.36
2022-10-04T10:56:46.920Z,56.41
2022-10-04T10:59:06.066Z,55.91
2022-10-04T11:01:47.221Z,53.12
2022-10-04T11:04:06.968Z,52.75
2022-10-04T11:06:25.404Z,51.70
2022-10-04T11:08:29.956Z,51.07
2022-10-04T11:10:52.366Z,49.39
2022-10-04T11:13:21.600Z,48.63
2022-10-04T11:15:42.003Z,48.75
2022-10-04T11:17:56.317Z,49.11
2022-10-04T11:20:32.020Z,48.67
2022-10-04T11:23:17.758Z,48.10
2022-10-04T11:25:50.728Z,48.41
2022-10-04T11:28:13.908Z,47.81
2022-10-04T11:30:51.392Z,47.86
2022-10-04T11:33:14.679Z,47.21
2022-10-04T11:35:36.894Z,47.01
2022-10-04T11:37:51.013Z,46.54
2022-10-04T11:40:01.804Z,46.36
2022-10-04T11:42:30.516Z,47.98
2022-10-04T11:44:59.843Z,48.20
2022-10-04T11:47:07.820Z,50.37
2022-10-04T11:49:27.810Z,49.43
2022-10-04T11:51:51.219Z,49.65
2022-10-04T11:54:30.224Z,49.87
2022-10-04T11:56:37.783Z,49.65
2022-10-04T11:58:52.492Z,49.99
2022-10-04T12:01:30.390Z,50.69
2022-10-04T12:04:18.076Z,50.28
2022-10-04T12:06:25.648Z,49.88
2022-10-04T12:08:31.834Z,49.41
2022-10-04T12:10:48.315Z,51.04
2022-10-04T12:12:52.552Z,52.65
2022-10-04T12:15:00.133Z,53.20
2022-10-04T12:17:44.397Z,54.54
2022-10-04T12:20:11.880Z,54.82
2022-10-04T12:23:06.420Z,55.70
2022-10-04T12:25:38.825Z,55.46
2022-10-04T12:28:12.258Z,55.97
2022-10-04T12:30:23.859Z,57.53
2022-10-04T12:32:34.337Z,57.34
2022-10-04T12:34:57.881Z,57.02
2022-10-04T12:37:05.588Z,57.49
2022-10-04T12:39:25.305Z,57.91
2022-10-04T12:41:33.118Z,59.55
2022-10-04T12:43:56.693Z,57.54
2022-10-04T12:46:13.098Z,56.99
2022-10-04T12:48:48.240Z,58.37
2022-10-04T12:51:04.000Z,58.75
2022-10-04T12:53:38.165Z,58.02
2022-10-04T12:56:01.608Z,57.97
2022-10-04T12:58:30.138Z,58.04
2022-10-04T13:00:43.814Z,60.26
2022-10-04T13:02:45.405Z,59.29
2022-10-04T13:04:55.163Z,59.14
2022-10-04T13:07:02.409Z,59.00
2022-10-04T13:09:28.097Z,57.60
2022-10-04T13:11:41.632Z,57.77
2022-10-04T13:13:55.294Z,59.06
2022-10-04T13:19:09.576Z,59.44
2022-10-04T13:21:19.712Z,59.08
2022-10-04T13:23:31.876Z,59.42
2022-10-04T13:25:52.233Z,59.30
2022-10-04T13:28:23.460Z,57.20
2022-10-04T13:30:32.512Z,57.54
2022-10-04T13:33:17.676Z,58.95
2022-10-04T13:35:51.534Z,59.86
2022-10-04T13:38:18.059Z,59.22
2022-10-04T13:40:55.534Z,58.83
2022-10-04T13:42:56.905Z,59.33
2022-10-04T13:45:18.359Z,57.87
2022-10-04T13:48:09.297Z,56.65
2022-10-04T13:50:33.604Z,57.11
2022-10-04T13:53:03.076Z,57.53
2022-10-04T13:55:44.591Z,58.81
2022-10-04T13:57:57.396Z,59.38
2022-10-04T14:00:11.520Z,57.90
2022-10-04T14:02:18.951Z,58.47
2022-10-04T14:04:42.216Z,58.82
2022-10-04T14:07:03.873Z,59.39
2022-10-04T14:09:26.526Z,59.69
2022-10-04T14:12:09.535Z,58.13
2022-10-04T14:14:25.537Z,58.16
2022-10-04T14:16:50.415Z,57.64
2022-10-04T14:19:08.373Z,57.75
2022-10-04T14:21:38.033Z,59.43
2022-10-04T14:24:02.720Z,59.57
2022-10-04T14:26:14.440Z,58.87
2022-10-04T14:28:58.842Z,58.96
2022-10-04T14:31:37.244Z,58.44
2022-10-04T14:34:01.338Z,58.40
2022-10-04T14:36:02.749Z,58.77
2022-10-04T14:38:45.576Z,58.81
2022-10-04T14:40:49.950Z,59.38
2022-10-04T14:43:15.235Z,60.91
2022-10-04T14:45:24.490Z,60.91
2022-10-04T14:47:44.263Z,60.89
2022-10-04T14:50:01.056Z,60.59
2022-10-04T14:52:33.169Z,60.35
2022-10-04T14:54:42.270Z,60.57
2022-10-04T14:56:53.325Z,59.81
2022-10-04T14:59:15.072Z,60.38
2022-10-04T15:01:25.235Z,59.99
2022-10-04T15:03:38.965Z,58.66
2022-10-04T15:05:53.010Z,60.31
2022-10-04T15:08:09.868Z,60.06
2022-10-04T15:10:14.000Z,59.98
2022-10-04T15:12:51.883Z,60.34
2022-10-04T15:14:58.523Z,60.66
2022-10-04T15:17:03.492Z,61.15
2022-10-04T15:19:22.666Z,60.76
2022-10-04T15:21:47.114Z,61.43
2022-10-04T15:24:10.663Z,60.19
2022-10-04T15:26:18.209Z,60.77
2022-10-04T15:28:53.999Z,60.04
2022-10-04T15:31:01.644Z,60.43
2022-10-04T15:33:32.039Z,60.71
2022-10-04T15:36:28.826Z,60.20
2022-10-04T15:38:53.686Z,60.62
2022-10-04T15:41:30.705Z,61.27
2022-10-04T15:44:04.887Z,61.50
2022-10-04T15:46:27.944Z,61.61
2022-10-04T15:48:53.951Z,60.73
2022-10-04T15:51:13.906Z,61.72
2022-10-04T15:53:23.341Z,63.10
2022-10-04T15:55:24.747Z,62.74
2022-10-04T15:58:02.992Z,62.92
2022-10-04T16:00:15.561Z,62.76
2022-10-04T16:02:42.675Z,63.13
2022-10-04T16:04:44.801Z,63.53
2022-10-04T16:07:06.484Z,63.12
2022-10-04T16:09:28.873Z,63.25
2022-10-04T16:12:00.623Z,64.18
2022-10-04T16:14:33.873Z,63.78
2022-10-04T16:16:39.826Z,64.01
2022-10-04T16:19:03.045Z,64.27
2022-10-04T16:21:16.907Z,64.52
2022-10-04T16:23:29.403Z,64.71
2022-10-04T16:25:37.810Z,64.57
2022-10-04T16:27:51.285Z,65.03
2022-10-04T16:32:36.653Z,65.47
2022-10-04T16:34:45.503Z,65.64
2022-10-04T16:36:53.990Z,66.21
2022-10-04T16:39:18.343Z,66.75
2022-10-04T16:41:36.599Z,66.83
2022-10-04T16:43:51.600Z,67.61
2022-10-04T16:46:26.257Z,67.93
2022-10-04T16:48:27.775Z,68.57
2022-10-04T16:51:06.586Z,68.83
2022-10-04T16:53:44.773Z,69.67
2022-10-04T16:55:57.506Z,70.04
2022-10-04T16:58:26.820Z,70.13
2022-10-04T17:00:36.786Z,70.60
2022-10-04T17:03:01.161Z,70.78
2022-10-04T17:05:22.544Z,71.10
2022-10-04T17:07:51.349Z,71.47
2022-10-04T17:09:56.353Z,71.84
2022-10-04T17:12:07.071Z,72.09
2022-10-04T17:14:31.171Z,72.18
2022-10-04T17:16:56.106Z,72.73
2022-10-04T17:19:03.252Z,72.60
2022-10-04T17:21:23.759Z,72.84
2022-10-04T17:23:34.024Z,73.14
2022-10-04T17:25:42.731Z,73.21
2022-10-04T17:27:53.466Z,73.39
2022-10-04T17:30:21.387Z,73.57
2022-10-04T17:32:42.652Z,73.82
2022-10-04T17:35:02.698Z,74.06
2022-10-04T17:37:44.592Z,74.14
2022-10-04T17:40:08.696Z,74.27
2022-10-04T17:42:10.357Z,74.57
2022-10-04T17:44:45.252Z,74.65
2022-10-04T17:47:14.867Z,74.51
2022-10-04T17:49:41.469Z,75.01
2022-10-04T17:52:12.143Z,74.99
2022-10-04T17:54:34.556Z,75.28
2022-10-04T17:56:42.265Z,75.17
2022-10-04T17:58:55.764Z,75.25
2022-10-04T18:01:08.273Z,75.38
2022-10-04T18:03:16.569Z,75.75
2022-10-04T18:05:23.777Z,75.92
2022-10-04T18:07:33.041Z,75.88
2022-10-04T18:09:40.589Z,76.00
2022-10-04T18:11:47.239Z,75.56
2022-10-04T18:14:04.442Z,75.78
2022-10-04T18:16:25.558Z,76.06
2022-10-04T18:18:29.926Z,76.09
2022-10-04T18:20:53.466Z,76.41
2022-10-04T18:23:01.074Z,76.55
2022-10-04T18:25:23.249Z,76.07
2022-10-04T18:27:26.699Z,76.54
2022-10-04T18:29:43.140Z,76.46
2022-10-04T18:31:44.685Z,76.25
2022-10-04T18:33:53.868Z,76.91
2022-10-04T18:36:06.347Z,76.43
2022-10-04T18:38:11.261Z,76.54
2022-10-04T18:40:31.978Z,76.58
2022-10-04T18:42:40.853Z,77.01
2022-10-04T18:45:20.918Z,76.26
2022-10-04T18:47:41.350Z,76.36
2022-10-04T18:49:52.515Z,76.37
2022-10-04T18:52:12.614Z,76.33
2022-10-04T18:54:14.197Z,76.30
2022-10-04T18:56:17.241Z,76.58
2022-10-04T18:59:12.469Z,76.14
2022-10-04T19:02:01.636Z,76.20
2022-10-04T19:04:13.810Z,76.24
2022-10-04T19:06:29.796Z,76.16
2022-10-04T19:08:45.711Z,76.32
2022-10-04T19:11:12.526Z,75.95
2022-10-04T19:13:32.338Z,76.45
2022-10-04T19:15:45.985Z,76.06
2022-10-04T19:18:22.507Z,75.98
2022-10-04T19:20:54.541Z,76.40
2022-10-04T19:23:23.980Z,76.05
2022-10-04T19:25:31.473Z,76.67
2022-10-04T19:27:46.280Z,76.36
2022-10-04T19:29:58.208Z,76.52
2022-10-04T19:32:08.935Z,76.61
2022-10-04T19:34:25.573Z,76.68
2022-10-04T19:36:46.313Z,76.78
2022-10-04T19:39:14.468Z,76.62
2022-10-04T19:41:43.774Z,76.80
2022-10-04T19:43:51.213Z,77.07
2022-10-04T19:46:17.180Z,76.54
2022-10-04T19:48:24.799Z,76.75
2022-10-04T19:50:37.738Z,76.57
2022-10-04T19:52:49.302Z,76.80
2022-10-04T19:55:08.897Z,77.20
2022-10-04T19:57:15.105Z,77.17
2022-10-04T19:59:45.880Z,76.70
2022-10-04T20:01:48.685Z,77.20
2022-10-04T20:04:11.568Z,77.14
2022-10-04T20:06:26.182Z,76.70
2022-10-04T20:09:02.410Z,77.18
2022-10-04T20:11:19.436Z,76.65
2022-10-04T20:13:26.209Z,76.99
2022-10-04T20:15:45.169Z,76.73
2022-10-04T20:17:48.943Z,76.80
2022-10-04T20:19:50.414Z,77.16
2022-10-04T20:21:51.861Z,77.27
2022-10-04T20:23:56.605Z,77.16
2022-10-04T20:25:58.350Z,76.98
2022-10-04T20:28:01.794Z,76.87
2022-10-04T20:30:14.243Z,77.01
2022-10-04T20:32:33.975Z,77.58
2022-10-04T20:34:38.587Z,78.51
2022-10-04T20:36:43.296Z,78.23
2022-10-04T20:38:50.617Z,77.36
2022-10-04T20:40:52.114Z,77.78
2022-10-04T20:43:15.517Z,78.02
2022-10-04T20:45:32.731Z,79.00
2022-10-04T20:47:43.705Z,78.32
2022-10-04T20:49:45.629Z,78.08
2022-10-04T20:51:48.673Z,78.00
2022-10-04T20:53:52.822Z,77.96
2022-10-04T20:56:19.212Z,77.79
2022-10-04T20:58:35.377Z,77.30
2022-10-04T21:00:52.516Z,77.35
2022-10-04T21:03:15.476Z,77.06
2022-10-04T21:05:27.058Z,76.77
2022-10-04T21:07:28.541Z,76.56
2022-10-04T21:09:31.463Z,76.66
2022-10-04T21:11:44.628Z,76.31
2022-10-04T21:13:57.576Z,76.22
2022-10-04T21:15:59.575Z,75.99
2022-10-04T21:18:01.074Z,76.47
2022-10-04T21:20:02.836Z,76.23
2022-10-04T21:22:09.061Z,76.11
2022-10-04T21:24:38.481Z,76.26
2022-10-04T21:26:55.213Z,76.55
2022-10-04T21:28:59.672Z,76.46
2022-10-04T21:31:02.876Z,76.60
2022-10-04T21:33:04.311Z,76.72
2022-10-04T21:35:07.691Z,76.72
2022-10-04T21:37:09.120Z,76.51
2022-10-04T21:39:10.574Z,76.94
2022-10-04T21:41:12.005Z,76.88
2022-10-04T21:43:13.510Z,77.05
2022-10-04T21:45:15.053Z,76.93
2022-10-04T21:47:16.861Z,76.89
2022-10-04T21:49:18.301Z,76.99
2022-10-04T21:51:19.708Z,77.07
2022-10-04T21:53:21.453Z,76.42
2022-10-04T21:55:23.299Z,77.01
2022-10-04T21:57:24.788Z,76.82
2022-10-04T21:59:26.298Z,77.24
2022-10-04T22:01:27.835Z,77.28
2022-10-04T22:03:29.467Z,77.29
2022-10-04T22:05:30.923Z,77.36
2022-10-04T22:07:32.360Z,77.12
2022-10-04T22:09:35.665Z,77.24
2022-10-04T22:11:37.435Z,77.82
2022-10-04T22:13:39.406Z,78.16
2022-10-04T22:15:40.906Z,78.52
2022-10-04T22:17:42.356Z,78.01
2022-10-04T22:19:43.803Z,77.84
2022-10-04T22:21:45.235Z,79.76
2022-10-04T22:23:46.850Z,79.74
2022-10-04T22:25:48.960Z,79.41
2022-10-04T22:27:52.026Z,79.33
2022-10-04T22:29:55.948Z,79.28
2022-10-04T22:31:57.496Z,78.66
2022-10-04T22:33:59.296Z,78.79
2022-10-04T22:36:24.023Z,78.60
2022-10-04T22:38:25.694Z,79.12
2022-10-04T22:40:28.654Z,78.75
2022-10-04T22:42:31.865Z,79.14
2022-10-04T22:44:38.332Z,79.14
2022-10-04T22:46:42.539Z,80.42
2022-10-04T22:48:47.926Z,79.82
2022-10-04T22:50:49.858Z,80.12
2022-10-04T22:52:51.386Z,80.09
2022-10-04T22:54:55.224Z,80.13
2022-10-04T22:56:57.527Z,79.91
2022-10-04T22:58:59.689Z,79.76
2022-10-04T23:01:01.285Z,79.54
2022-10-04T23:03:21.426Z,79.19
2022-10-04T23:05:23.102Z,79.63
2022-10-04T23:07:24.691Z,79.05
2022-10-04T23:09:26.261Z,79.86
2022-10-04T23:11:31.359Z,80.13
2022-10-04T23:13:33.264Z,80.06
2022-10-04T23:15:34.886Z,79.94
2022-10-04T23:17:39.531Z,80.07
2022-10-04T23:19:40.971Z,79.62
2022-10-04T23:21:45.052Z,79.56
2022-10-04T23:23:47.765Z,79.56
2022-10-04T23:25:50.177Z,79.60
2022-10-04T23:27:52.019Z,79.56
2022-10-04T23:30:01.657Z,79.52
2022-10-04T23:32:12.521Z,78.99
2022-10-04T23:34:18.817Z,79.07
2022-10-04T23:36:21.547Z,79.40
2022-10-04T23:38:24.815Z,79.97
2022-10-04T23:40:26.497Z,80.58
2022-10-04T23:42:31.880Z,80.42
2022-10-04T23:44:37.933Z,80.85
2022-10-04T23:46:39.669Z,80.83
2022-10-04T23:48:42.605Z,81.04
2022-10-04T23:50:44.149Z,80.86
2022-10-04T23:52:45.679Z,81.14
2022-10-04T23:54:51.666Z,80.27
2022-10-04T23:56:53.466Z,79.96
2022-10-04T23:58:58.615Z,80.32
